Latest Weather Observations for Christmas Island

IDW60801

Issued at 8:53 am WST Monday 19 April 2021 (issued every 10 minutes, with the page automatically refreshed every 10 minutes)

About weather observations | Map of weather stations | Latest weather observations for WA | Other Formats
Station Details ID: 200790 Name: CHRISTMAS ISLAND AERO Lat: -10.45 Lon: 105.69 Height: 261.0 m
Data from the previous 72 hours. | See also: Recent months at Christmas Island
Date/Time
WST
Temp
°C
App
Temp
°C
Dew
Point
°C
Rel
Hum
%
Delta-T
°C
Wind Press
QNH
hPa
Press
MSL
hPa
Rain since
9am
mm
Dir  Spd
km/h
Gust
km/h
Spd
kts
Gust
kts
19/08:30am 26.5 28.7 24.3 88 1.5 SE 20 37 11 20 1014.7 1013.0 7.0
19/08:00am 26.0 27.9 23.7 87 1.6 ESE 20 30 11 16 1014.5 1012.8 7.0
19/07:39am 25.9 27.8 23.8 88 1.5 ESE 20 30 11 16 1014.2 1012.5 7.0
19/07:30am 25.9 27.9 23.6 87 1.6 ESE 19 30 10 16 1014.0 1012.3 7.0
19/07:21am 25.9 27.8 23.8 88 1.5 ESE 20 30 11 16 1013.9 1012.2 7.0
19/07:00am 25.8 27.7 23.8 89 1.4 ESE 20 32 11 17 1013.7 1012.0 7.0
19/06:30am 25.7 28.1 23.7 89 1.4 ESE 17 24 9 13 1013.5 1011.8 7.0
19/06:00am 25.6 27.5 23.5 88 1.4 ESE 19 28 10 15 1013.4 1011.7 7.0
19/05:30am 25.6 28.0 23.7 89 1.3 SE 17 24 9 13 1013.2 1011.5 7.0
19/05:00am 25.7 27.6 23.7 89 1.4 ESE 20 32 11 17 1013.1 1011.4 7.0
19/04:30am 25.7 27.7 23.6 88 1.4 SE 19 28 10 15 1013.2 1011.5 7.0
19/04:00am 25.7 27.8 23.7 89 1.4 ESE 19 30 10 16 1013.1 1011.4 7.0
19/03:30am 25.6 27.7 23.7 89 1.3 SE 19 30 10 16 1013.3 1011.6 7.0
19/03:00am 25.6 28.1 23.8 90 1.2 SE 17 28 9 15 1013.7 1012.0 7.0
19/02:30am 25.7 27.2 23.7 89 1.4 ESE 22 32 12 17 1013.8 1012.1 7.0
19/02:00am 25.7 27.9 23.9 90 1.2 ESE 19 30 10 16 1014.1 1012.4 7.0
19/01:30am 25.6 28.2 24.0 91 1.1 SE 17 24 9 13 1014.4 1012.7 7.0
19/01:00am 25.5 28.2 24.1 92 1.0 SE 17 28 9 15 1014.8 1013.1 7.0
19/12:30am 25.4 28.1 24.2 93 0.8 SE 17 24 9 13 1015.2 1013.6 7.0
19/12:00am 24.9 28.3 24.0 95 0.6 SE 13 24 7 13 1015.2 1013.6 7.0
 
Date/Time
WST
Temp
°C
App
Temp
°C
Dew
Point
°C
Rel
Hum
%
Delta-T
°C
Wind Press
QNH
hPa
Press
MSL
hPa
Rain since
9am
mm
Dir  Spd
km/h
Gust
km/h
Spd
kts
Gust
kts
18/11:47pm 24.6 27.7 23.6 94 0.7 SE 13 22 7 12 1015.3 1013.7 7.0
18/11:30pm 23.2 24.5 21.6 91 1.1 SSE 17 37 9 20 1015.4 1013.8 6.6
18/11:24pm 23.8 25.7 22.1 90 1.1 SE 15 37 8 20 1015.6 1014.0 2.6
18/11:00pm 25.6 29.1 24.2 92 1.0 SE 13 20 7 11 1015.5 1013.9 0.0
18/10:30pm 25.5 28.6 24.1 92 1.0 SE 15 26 8 14 1015.3 1013.7 0.0
18/10:00pm 25.6 28.7 24.2 92 1.0 SE 15 24 8 13 1015.6 1014.0 0.0
18/09:30pm 25.6 28.0 23.7 89 1.3 SE 17 26 9 14 1015.3 1013.7 0.0
18/09:06pm 25.6 28.1 23.8 90 1.2 SE 17 26 9 14 1015.2 1013.6 0.0
18/09:00pm 25.5 27.7 23.9 91 1.1 SE 19 28 10 15 1015.1 1013.5 0.0
18/08:52pm 25.5 27.9 23.7 90 1.2 SE 17 28 9 15 1014.9 1013.2 0.0
18/08:30pm 25.6 28.2 24.0 91 1.1 SE 17 26 9 14 1014.7 1013.0 0.0
18/08:00pm 25.7 28.3 23.9 90 1.2 SE 17 30 9 16 1014.3 1012.6 0.0
18/07:30pm 25.7 28.9 24.3 92 1.0 SE 15 28 8 15 1013.9 1012.2 0.0
18/07:00pm 25.6 28.1 23.8 90 1.2 SE 17 26 9 14 1013.7 1012.0 0.0
18/06:32pm 25.5 28.5 23.4 88 1.4 SE 13 24 7 13 1013.7 1012.0 0.0
18/06:30pm 25.6 28.7 23.5 88 1.4 SE 13 24 7 13 1013.7 1012.0 0.0
18/06:00pm 26.0 29.1 23.5 86 1.7 SE 13 20 7 11 1013.6 1011.9 0.0
18/05:57pm 26.1 29.2 23.6 86 1.7 SE 13 20 7 11 1013.5 1011.8 0.0
18/05:30pm 25.9 28.5 23.9 89 1.4 SE 17 24 9 13 1013.4 1011.7 0.0
18/05:00pm 26.0 29.0 24.0 89 1.4 SE 15 22 8 12 1013.3 1011.6 0.0
18/04:30pm 26.7 29.9 24.4 87 1.6 SE 15 24 8 13 1013.4 1011.7 0.0
18/04:00pm 26.8 29.6 24.3 86 1.7 SE 17 26 9 14 1013.5 1011.8 0.0
18/03:30pm 26.7 29.1 24.2 86 1.7 ESE 19 26 10 14 1013.6 1011.9 0.0
18/03:05pm 27.3 29.3 24.0 82 2.3 ESE 20 30 11 16 1013.5 1011.8 0.0
18/03:00pm 27.5 29.6 24.1 82 2.4 ESE 20 30 11 16 1013.6 1011.9 0.0
18/02:36pm 27.4 29.5 24.1 82 2.3 ESE 20 26 11 14 1013.8 1012.1 0.0
18/02:30pm 27.6 29.6 24.0 81 2.5 ESE 20 30 11 16 1013.8 1012.1 0.0
18/02:00pm 26.7 30.2 24.2 86 1.7 SE 13 22 7 12 1014.2 1012.5 0.0
18/01:30pm 27.4 30.8 25.2 88 1.6 SE 17 24 9 13 1014.3 1012.6 0.0
18/01:00pm 28.0 31.5 25.4 86 1.8 SE 17 24 9 13 1014.6 1012.9 0.0
18/12:30pm 26.9 29.2 24.4 86 1.7 SE 20 32 11 17 1015.1 1013.5 0.0
18/12:00pm 27.1 28.7 23.8 82 2.3 ESE 22 30 12 16 1015.5 1013.9 0.0
18/11:30am 26.8 29.0 23.9 84 2.0 SE 19 28 10 15 1015.9 1014.2 0.0
18/11:21am 26.6 28.7 23.7 84 2.0 ESE 19 28 10 15 1015.9 1014.2 0.0
18/11:00am 26.7 28.2 23.0 80 2.5 ESE 20 28 11 15 1016.0 1014.3 0.0
18/10:41am 27.3 28.9 23.3 79 2.8 ESE 20 28 11 15 1016.0 1014.3 0.0
18/10:30am 27.0 28.5 23.0 79 2.7 ESE 20 30 11 16 1015.9 1014.2 0.0
18/10:04am 27.1 29.7 24.0 83 2.2 SE 17 24 9 13 1015.9 1014.2 0.0
18/10:00am 27.1 29.8 24.2 84 2.0 SE 17 30 9 16 1016.0 1014.3 9.6
18/09:49am 26.8 29.0 23.9 84 2.0 ESE 19 28 10 15 1015.9 1014.2 9.6
18/09:30am 26.7 29.8 24.2 86 1.7 SE 15 24 8 13 1015.9 1014.2 9.6
18/09:00am 26.3 28.7 23.6 85 1.9 SE 17 22 9 12 1015.7 1014.1 9.6
18/08:35am 25.8 28.2 23.7 88 1.5 ESE 17 24 9 13 1015.5 1013.9 9.6
18/08:30am 25.8 28.2 23.7 88 1.5 ESE 17 24 9 13 1015.5 1013.9 9.6
18/08:00am 25.5 28.6 23.6 89 1.3 SE 13 20 7 11 1015.4 1013.8 9.6
18/07:30am 24.9 27.9 23.3 91 1.1 SE 13 24 7 13 1015.2 1013.6 9.6
18/07:00am 24.7 27.2 23.1 91 1.1 SE 15 24 8 13 1014.8 1013.1 9.6
18/06:30am 24.8 27.8 23.4 92 1.0 SE 13 20 7 11 1014.8 1013.1 9.6
18/06:27am 24.8 27.8 23.4 92 1.0 SE 13 20 7 11 1014.8 1013.1 9.6
18/06:11am 24.6 27.3 22.8 90 1.2 SE 13 19 7 10 1014.4 1012.7 9.6
18/06:00am 24.4 27.1 22.8 91 1.1 SE 13 19 7 10 1014.3 1012.6 9.6
18/05:30am 24.5 27.2 22.9 91 1.1 SE 13 22 7 12 1014.3 1012.6 9.6
18/05:00am 24.9 27.9 23.3 91 1.1 SE 13 20 7 11 1014.2 1012.5 9.6
18/04:38am 24.8 27.3 23.2 91 1.1 SE 15 24 8 13 1014.1 1012.4 9.6
18/04:30am 24.8 27.7 23.2 91 1.1 SE 13 20 7 11 1014.2 1012.5 9.6
18/04:13am 24.5 27.4 23.1 92 1.0 SE 13 20 7 11 1014.1 1012.4 9.6
18/04:00am 24.5 28.0 23.5 94 0.7 SE 11 17 6 9 1014.0 1012.3 9.6
18/03:30am 24.9 28.2 23.9 94 0.7 ESE 13 22 7 12 1014.2 1012.5 9.6
18/03:00am 24.7 27.8 23.5 93 0.8 ESE 13 20 7 11 1014.4 1012.7 9.6
18/02:39am 24.6 27.7 23.6 94 0.7 ESE 13 19 7 10 1014.6 1012.9 9.6
18/02:30am 24.5 28.0 23.5 94 0.7 ESE 11 19 6 10 1014.6 1012.9 9.6
18/02:20am 24.4 27.4 23.4 94 0.7 ESE 13 20 7 11 1014.6 1012.9 9.6
18/02:00am 24.7 27.5 23.7 94 0.7 SE 15 22 8 12 1014.8 1013.1 9.6
18/01:58am 24.7 27.5 23.7 94 0.7 SE 15 22 8 12 1014.8 1013.1 9.6
18/01:30am 24.5 27.6 23.6 95 0.6 SE 13 19 7 10 1015.3 1013.7 9.6
18/01:00am 24.0 26.9 23.1 95 0.6 SE 13 19 7 10 1015.5 1013.9 9.6
18/12:30am 23.6 26.7 22.8 95 0.5 ESE 11 17 6 9 1015.7 1014.1 9.6
18/12:01am 22.7 26.0 21.9 95 0.5 SSE 7 13 4 7 1015.7 1014.1 9.6
18/12:00am 22.7 26.0 21.9 95 0.5 SSE 7 13 4 7 1015.7 1014.1 9.6
 
Date/Time
WST
Temp
°C
App
Temp
°C
Dew
Point
°C
Rel
Hum
%
Delta-T
°C
Wind Press
QNH
hPa
Press
MSL
hPa
Rain since
9am
mm
Dir  Spd
km/h
Gust
km/h
Spd
kts
Gust
kts
17/11:58pm 22.7 26.2 21.9 95 0.5 SSE 6 13 3 7 1015.7 1014.1 9.6
17/11:31pm 23.5 26.0 22.5 94 0.7 ESE 13 41 7 22 1016.4 1014.7 2.0
17/11:30pm 23.7 26.3 22.7 94 0.7 E 13 24 7 13 1016.4 1014.7 1.2
17/11:25pm 23.5 26.5 22.7 95 0.5 E 11 19 6 10 1016.0 1014.3 1.0
17/11:00pm 23.2 23.4 22.0 93 0.8 ENE 24 39 13 21 1016.3 1014.6 0.8
17/10:55pm 23.7 23.9 22.1 91 1.1 E 24 39 13 21 1016.3 1014.6 0.4
17/10:30pm 25.9 29.0 24.1 90 1.2 SE 15 26 8 14 1016.0 1014.3 0.0
17/10:00pm 25.9 28.0 23.8 88 1.5 SE 19 26 10 14 1015.7 1014.1 0.0
17/09:30pm 26.0 28.6 24.0 89 1.4 SE 17 24 9 13 1015.4 1013.8 0.0
17/09:00pm 26.0 28.7 24.2 90 1.3 SE 17 30 9 16 1015.1 1013.5 0.0
17/08:30pm 26.0 28.2 23.9 88 1.5 SE 19 30 10 16 1014.7 1013.0 0.0
17/08:00pm 25.9 28.4 23.8 88 1.5 SE 17 28 9 15 1014.4 1012.7 0.0
17/07:30pm 26.1 28.7 24.0 88 1.5 SE 17 22 9 12 1014.1 1012.4 0.0
17/07:00pm 26.1 28.6 23.8 87 1.6 SE 17 28 9 15 1013.6 1011.9 0.0
17/06:30pm 26.3 28.9 24.0 87 1.6 SE 17 30 9 16 1013.4 1011.7 0.0
17/06:14pm 26.3 28.4 23.8 86 1.7 SE 19 28 10 15 1013.2 1011.5 0.0
17/06:00pm 26.6 29.2 23.9 85 1.9 SE 17 28 9 15 1013.1 1011.4 0.0
17/05:30pm 26.7 28.8 23.8 84 2.0 SE 19 28 10 15 1012.9 1011.2 0.0
17/05:11pm 26.9 28.3 23.6 82 2.3 SE 22 32 12 17 1012.7 1011.0 0.0
17/05:00pm 27.1 29.1 24.0 83 2.2 SE 20 35 11 19 1012.7 1011.0 0.0
17/04:30pm 27.2 29.3 24.1 83 2.2 ESE 20 32 11 17 1012.8 1011.1 0.0
17/04:00pm 27.3 28.8 23.7 81 2.5 ESE 22 32 12 17 1012.8 1011.1 0.0
17/03:30pm 27.3 29.6 24.4 84 2.0 ESE 20 32 11 17 1012.8 1011.1 0.0
17/03:00pm 27.7 29.5 24.3 82 2.4 ESE 22 35 12 19 1013.0 1011.3 0.0
17/02:30pm 27.6 29.4 24.2 82 2.4 SE 22 30 12 16 1013.2 1011.5 0.0
17/02:00pm 27.5 29.2 24.1 82 2.4 SE 22 32 12 17 1013.3 1011.6 0.0
17/01:30pm 27.7 29.7 23.9 80 2.6 ESE 20 32 11 17 1013.6 1011.9 0.0
17/01:16pm 27.8 29.1 24.0 80 2.6 ESE 24 33 13 18 1013.8 1012.1 0.0
17/01:00pm 27.5 28.7 23.9 81 2.5 ESE 24 35 13 19 1014.0 1012.3 0.0
17/12:54pm 27.4 28.6 23.8 81 2.5 ESE 24 33 13 18 1014.1 1012.4 0.0
17/12:30pm 27.7 29.4 24.1 81 2.5 ESE 22 33 12 18 1014.4 1012.7 0.0
17/12:14pm 27.9 30.1 24.3 81 2.5 ESE 20 28 11 15 1014.6 1012.9 0.0
17/12:00pm 27.7 29.9 23.9 80 2.6 ESE 19 30 10 16 1014.7 1013.0 0.0
17/11:54am 27.9 30.0 24.1 80 2.7 ESE 20 30 11 16 1014.8 1013.1 0.0
17/11:50am 27.9 29.9 23.9 79 2.8 ESE 20 30 11 16 1014.9 1013.2 0.0
17/11:30am 27.5 28.6 23.7 80 2.6 ESE 24 39 13 21 1015.0 1013.4 0.0
17/11:22am 26.9 28.6 24.0 84 2.0 ESE 22 35 12 19 1015.0 1013.4 0.0
17/11:00am 27.9 29.6 24.1 80 2.6 ESE 22 32 12 17 1015.4 1013.8 0.0
17/10:30am 27.4 28.5 23.6 80 2.6 ESE 24 33 13 18 1015.4 1013.8 0.0
17/10:00am 27.4 28.5 23.6 80 2.6 ESE 24 33 13 18 1015.6 1014.0 6.8
17/09:30am 27.2 28.8 23.9 82 2.3 ESE 22 37 12 20 1015.6 1014.0 6.8
17/09:00am 26.3 28.1 23.6 85 1.9 ESE 20 32 11 17 1015.3 1013.7 6.8
17/08:59am 26.3 28.0 23.4 84 2.0 ESE 20 32 11 17 1015.3 1013.7 6.8
17/08:40am 26.4 28.6 24.2 88 1.5 ESE 20 30 11 16 1015.2 1013.6 6.8
17/08:30am 26.2 28.1 23.7 86 1.7 ESE 20 32 11 17 1015.1 1013.5 6.8
17/08:00am 25.8 27.7 23.7 88 1.4 ESE 20 32 11 17 1015.0 1013.4 6.8
17/07:54am 25.6 27.5 23.7 89 1.3 SE 20 30 11 16 1015.0 1013.4 6.8
17/07:41am 25.6 27.5 23.8 90 1.2 ESE 20 33 11 18 1014.8 1013.1 6.8
17/07:30am 25.3 27.1 23.5 90 1.2 SE 20 35 11 19 1014.6 1012.9 6.8
17/07:21am 25.5 27.9 23.7 90 1.2 SE 17 35 9 19 1014.5 1012.8 6.4
17/07:00am 25.6 27.2 23.3 87 1.6 E 20 32 11 17 1014.3 1012.6 4.8
17/06:30am 25.5 28.1 23.9 91 1.1 E 17 26 9 14 1014.0 1012.3 4.8
17/06:00am 25.5 28.2 24.1 92 1.0 SE 17 26 9 14 1013.7 1012.0 4.8
17/05:30am 25.5 28.3 24.3 93 0.8 SE 17 26 9 14 1013.5 1011.8 4.8
17/05:00am 25.2 29.1 24.2 94 0.7 SE 11 19 6 10 1013.4 1011.7 4.8
17/04:30am 25.4 28.1 24.2 93 0.8 SE 17 22 9 12 1013.4 1011.7 4.8
17/04:00am 25.2 28.3 24.2 94 0.7 SE 15 24 8 13 1013.5 1011.8 4.6
17/03:30am 25.1 28.5 24.1 94 0.7 SE 13 24 7 13 1013.5 1011.8 4.6
17/03:29am 25.1 28.5 24.1 94 0.7 SE 13 24 7 13 1013.5 1011.8 4.6
17/03:05am 24.1 25.3 22.2 89 1.3 SE 19 37 10 20 1013.7 1012.0 2.0
17/03:00am 25.7 29.6 24.3 92 1.0 SE 11 17 6 9 1013.5 1011.8 0.8
17/02:30am 25.8 29.2 24.0 90 1.2 SE 13 22 7 12 1013.9 1012.2 0.8
17/02:00am 25.7 28.9 23.7 89 1.4 SE 13 20 7 11 1014.1 1012.4 0.8
17/01:30am 25.7 28.5 23.6 88 1.4 ESE 15 22 8 12 1014.4 1012.7 0.8
17/01:00am 25.7 28.8 23.6 88 1.4 ESE 13 19 7 10 1014.6 1012.9 0.8
17/12:30am 25.8 28.7 23.8 89 1.4 SE 15 20 8 11 1014.5 1012.8 0.8
17/12:00am 25.8 28.7 23.8 89 1.4 SE 15 24 8 13 1014.7 1013.0 0.8
 
Date/Time
WST
Temp
°C
App
Temp
°C
Dew
Point
°C
Rel
Hum
%
Delta-T
°C
Wind Press
QNH
hPa
Press
MSL
hPa
Rain since
9am
mm
Dir  Spd
km/h
Gust
km/h
Spd
kts
Gust
kts
16/11:30pm 25.6 28.0 23.7 89 1.3 SE 17 22 9 12 1014.7 1013.0 0.8
16/11:00pm 25.7 28.5 23.6 88 1.4 SE 15 20 8 11 1014.6 1012.9 0.8
16/10:54pm 25.7 28.5 23.6 88 1.4 SE 15 22 8 12 1014.6 1012.9 0.8
16/10:32pm 25.7 28.7 23.4 87 1.6 SE 13 22 7 12 1014.6 1012.9 0.8
16/10:30pm 25.7 28.5 23.6 88 1.4 SE 15 22 8 12 1014.6 1012.9 0.8
16/10:00pm 25.9 28.4 23.8 88 1.5 SE 17 24 9 13 1014.4 1012.7 0.8
16/09:30pm 25.8 28.3 23.8 89 1.4 SE 17 24 9 13 1014.1 1012.4 0.8
16/09:00pm 25.9 28.4 23.8 88 1.5 ESE 17 24 9 13 1013.9 1012.2 0.8
16/08:30pm 25.9 28.4 23.8 88 1.5 ESE 17 24 9 13 1013.5 1011.8 0.8
16/08:00pm 26.0 28.8 23.7 87 1.6 ESE 15 28 8 15 1013.0 1011.3 0.8
16/07:30pm 26.0 29.2 23.7 87 1.6 E 13 19 7 10 1012.9 1011.2 0.8
16/07:00pm 25.9 29.0 23.6 87 1.6 ESE 13 20 7 11 1012.6 1010.9 0.8
16/06:30pm 26.3 29.4 23.6 85 1.9 E 13 19 7 10 1012.7 1011.0 0.8
16/06:28pm 26.4 30.0 23.7 85 1.9 E 11 17 6 9 1012.7 1011.0 0.8
16/06:23pm 26.5 29.6 23.6 84 2.0 E 13 19 7 10 1012.7 1011.0 0.8
16/06:00pm 26.7 29.5 23.6 83 2.1 E 15 24 8 13 1012.5 1010.8 0.8
16/05:36pm 27.0 29.7 23.5 81 2.4 E 15 22 8 12 1012.3 1010.6 0.8
16/05:30pm 27.3 30.0 23.5 80 2.6 ENE 15 20 8 11 1012.2 1010.5 0.8
16/05:00pm 27.6 30.5 23.8 80 2.6 ENE 15 20 8 11 1012.0 1010.3 0.8
16/04:30pm 26.9 29.1 23.2 80 2.5 E 17 26 9 14 1011.9 1010.2 0.8
16/04:20pm 27.1 29.2 23.1 79 2.7 E 17 24 9 13 1011.9 1010.2 0.8
16/04:00pm 27.9 30.7 24.3 81 2.5 ENE 17 22 9 12 1011.7 1010.1 0.8
16/03:30pm 27.8 30.7 24.4 82 2.4 E 17 24 9 13 1012.1 1010.4 0.8
16/03:00pm 27.8 31.8 25.6 88 1.6 E 15 22 8 12 1012.2 1010.5 0.8
16/02:48pm 26.6 30.1 24.8 90 1.3 E 15 20 8 11 1012.3 1010.6 0.8
16/02:46pm 26.9 30.7 25.3 91 1.1 E 15 20 8 11 1012.3 1010.6 0.8
16/02:31pm 26.0 29.7 24.6 92 1.0 E 13 19 7 10 1012.5 1010.8 0.8
16/02:30pm 26.2 30.1 24.8 92 1.0 E 13 17 7 9 1012.6 1010.9 0.8
16/02:11pm 25.8 27.3 23.7 88 1.5 E 22 33 12 18 1012.8 1011.1 0.6
16/02:00pm 27.9 29.9 23.9 79 2.8 E 20 28 11 15 1012.7 1011.0 0.0
16/01:30pm 27.7 29.8 23.7 79 2.8 ENE 19 28 10 15 1013.0 1011.3 0.0
16/01:00pm 27.3 29.5 24.2 83 2.2 E 20 28 11 15 1013.2 1011.5 0.0
16/12:51pm 27.5 29.4 23.7 80 2.6 E 20 30 11 16 1013.3 1011.6 0.0
16/12:45pm 28.0 29.8 23.6 77 3.1 E 20 30 11 16 1013.5 1011.8 0.0
16/12:30pm 28.4 30.2 23.3 74 3.5 E 19 28 10 15 1013.5 1011.8 0.0
16/12:00pm 27.7 29.6 23.7 79 2.8 E 20 32 11 17 1013.7 1012.0 0.0
16/11:30am 26.7 29.4 23.4 82 2.3 E 15 22 8 12 1014.2 1012.5 0.0
16/11:00am 27.3 29.1 23.3 79 2.8 E 19 28 10 15 1014.4 1012.7 0.0
16/10:48am 26.9 29.9 24.0 84 2.0 E 15 20 8 11 1014.4 1012.7 0.0
16/10:30am 27.0 29.2 23.3 80 2.5 E 17 22 9 12 1014.5 1012.8 0.0
16/10:00am 27.0 29.7 24.1 84 2.0 E 17 24 9 13 1014.5 1012.8 1.6

Other formats

Comma delimited format used in spreadsheet applications
http://www.bom.gov.au/fwo/IDW60801/IDW60801.96995.axf

JavaScript Object Notation format (JSON) in row-major order
http://www.bom.gov.au/fwo/IDW60801/IDW60801.96995.json

Data quality

Most of these data are generated automatically and are frequently updated. Quality checks on data are not normally performed. It is possible for incorrect values to appear. Refer to information at About Latest Weather Observations and please check the disclaimer before using these data.